This is the latest recevied weather packets stored in our database for station/object NR0Q. If no packets are shown the sender has not sent any weather packets the latest 10 day(s).
| Time | Temp. | Humidity | Pressure | Rain* | Wind** | Luminosity | Snow |
|---|---|---|---|---|---|---|---|
| 1777790702 | 7.78° C | 85% | 1020.7 hPa | 0 mm | - | - | - |
| 1777789801 | 7.78° C | 85% | 1020.7 hPa | 0 mm | - | - | - |
| 1777788901 | 7.78° C | 84% | 1020.7 hPa | 0 mm | - | - | - |
| 1777788001 | 7.78° C | 84% | 1020.7 hPa | 0 mm | - | - | - |
| 1777787101 | 7.78° C | 84% | 1020.7 hPa | 0 mm | - | - | - |
| 1777786201 | 7.78° C | 85% | 1020.7 hPa | 0 mm | - | - | - |
| 1777785301 | 8.33° C | 85% | 1020.7 hPa | 0 mm | - | - | - |
| 1777784401 | 8.33° C | 84% | 1020.7 hPa | 0 mm | - | - | - |
| 1777783502 | 8.89° C | 82% | 1020.7 hPa | 0 mm | - | - | - |
| 1777782602 | 9.44° C | 81% | 1020.7 hPa | 0 mm | - | - | - |
| 1777781701 | 9.44° C | 79% | 1020.7 hPa | 0 mm | - | - | - |
| 1777780801 | 9.44° C | 81% | 1020.7 hPa | 0 mm | - | - | - |
| 1777779901 | 10° C | 76% | 1020.7 hPa | 0 mm | - | - | - |
| 1777778101 | 10.56° C | 73% | 1020.7 hPa | 0 mm | - | - | - |
| 1777777201 | 11.11° C | 71% | 1020.7 hPa | 0 mm | - | - | - |
| 1777776301 | 11.67° C | 68% | 0 hPa | 0 mm | - | - | - |
| 1777775401 | 12.22° C | 67% | 0 hPa | 0 mm | - | - | - |
| 1777774501 | 12.78° C | 64% | 0 hPa | 0 mm | - | - | - |
| 1777773601 | 13.89° C | 59% | 0 hPa | 0 mm | - | - | - |
| 1777772701 | 15° C | 54% | 0 hPa | 0 mm | - | - | - |
| 1777770901 | 17.22° C | 49% | 0 hPa | 0 mm | - | - | - |
| 1777770001 | 17.78° C | 41% | 0 hPa | 0 mm | - | - | - |
| 1777769101 | 18.89° C | 36% | 0 hPa | 0 mm | - | - | - |
| 1777768201 | 19.44° C | 33% | 0 hPa | 0 mm | - | - | - |
| 1777767301 | 20° C | 30% | 0 hPa | 0 mm | - | - | - |
* Rain latest hour (hover to see other rain measurements)
** Current wind speed in m/s (hover to see current wind gust speed)